Time;durP1;ratioP1;P1;durP2;ratioP2;P2;SDS_P1;SDS_P2;PMS_P1;PMS_P2;Temp;Humidity;BMP_temperature;BMP_pressure;BME280_temperature;BME280_humidity;BME280_pressure;Samples;Min_cycle;Max_cycle;Signal;HPM_P1;HPM_P2
2023/09/10 00:01:16;;;;;;;27.88;20.52;;;;;;;25.81;74.98;101151.91;7358547;19;20018;-60
2023/09/10 00:03:43;;;;;;;32.00;22.85;;;;;;;25.77;75.29;101150.78;7361969;19;20006;-61
2023/09/10 00:06:10;;;;;;;32.50;20.90;;;;;;;25.75;75.10;101155.59;7358910;19;20022;-62
2023/09/10 00:08:37;;;;;;;30.90;22.95;;;;;;;25.75;76.38;101150.22;7361090;19;20017;-61
2023/09/10 00:11:05;;;;;;;32.20;22.77;;;;;;;25.73;76.17;101150.44;7360720;19;20014;-61
2023/09/10 00:13:32;;;;;;;28.33;21.67;;;;;;;25.71;75.70;101151.75;7362784;19;20035;-61
2023/09/10 00:16:00;;;;;;;29.95;21.77;;;;;;;25.69;75.68;101143.09;7361176;19;20025;-61
2023/09/10 00:18:27;;;;;;;32.00;22.73;;;;;;;25.66;76.42;101140.88;7345432;19;20767;-60
2023/09/10 00:20:54;;;;;;;38.25;25.88;;;;;;;25.61;76.32;101144.31;7346139;19;20102;-64
2023/09/10 00:23:21;;;;;;;37.25;25.58;;;;;;;25.62;76.73;101143.25;7362276;19;20018;-60
2023/09/10 00:25:48;;;;;;;36.60;23.15;;;;;;;25.62;76.30;101139.72;7361321;19;21861;-62
2023/09/10 00:28:15;;;;;;;34.50;23.23;;;;;;;25.59;76.71;101132.97;7362140;19;20022;-60
2023/09/10 00:30:42;;;;;;;31.70;24.27;;;;;;;25.55;77.06;101126.41;7363042;19;20010;-61
2023/09/10 00:33:09;;;;;;;30.42;23.83;;;;;;;25.52;77.14;101126.88;7364491;19;20022;-60
2023/09/10 00:35:36;;;;;;;38.47;27.17;;;;;;;25.49;77.40;101124.69;7357887;19;20025;-62
2023/09/10 00:38:03;;;;;;;41.28;30.35;;;;;;;25.49;77.10;101127.38;7358887;19;20917;-61
2023/09/10 00:40:30;;;;;;;44.28;29.73;;;;;;;25.50;77.96;101128.97;7359275;19;20014;-62
2023/09/10 00:42:58;;;;;;;38.75;28.83;;;;;;;25.48;77.30;101129.25;7361984;19;20021;-60
2023/09/10 00:45:25;;;;;;;41.63;29.50;;;;;;;25.46;77.92;101134.06;7360423;19;20018;-61
2023/09/10 00:47:52;;;;;;;44.10;30.67;;;;;;;25.45;77.48;101140.50;7337464;19;20575;-61
2023/09/10 00:50:20;;;;;;;43.38;30.88;;;;;;;25.42;78.00;101132.91;7340534;19;20017;-65
2023/09/10 00:52:52;;;;;;;48.95;35.58;;;;;;;25.40;78.42;101131.50;7347245;19;20332;-62
2023/09/10 00:55:22;;;;;;;54.35;39.75;;;;;;;25.38;78.48;101131.78;7355313;19;20063;-62
2023/09/10 00:57:50;;;;;;;57.25;40.80;;;;;;;25.38;78.46;101125.56;7360333;19;20010;-60
2023/09/10 01:00:18;;;;;;;54.35;38.92;;;;;;;25.36;78.50;101127.66;7361022;19;20503;-60
2023/09/10 01:02:48;;;;;;;53.88;38.50;;;;;;;25.34;78.26;101127.94;7360632;19;20868;-62
2023/09/10 01:05:17;;;;;;;54.55;38.47;;;;;;;25.31;78.51;101128.41;7357729;19;20018;-62
2023/09/10 01:07:45;;;;;;;55.83;40.75;;;;;;;25.31;78.50;101135.66;7357626;19;20037;-61
2023/09/10 01:10:13;;;;;;;59.05;39.75;;;;;;;25.30;79.07;101123.25;7360387;19;20022;-62
2023/09/10 01:12:54;;;;;;;53.92;40.58;;;;;;;25.32;78.72;101131.91;7356564;19;20792;-62
2023/09/10 01:15:40;;;;;;;54.50;40.53;;;;;;;25.31;79.39;101130.28;7360208;19;20022;-60
2023/09/10 01:18:16;;;;;;;57.85;40.80;;;;;;;25.27;79.47;101126.44;7361761;19;20021;-61
2023/09/10 01:20:56;;;;;;;55.50;41.10;;;;;;;25.24;79.00;101133.13;7357904;19;20503;-61
2023/09/10 01:23:40;;;;;;;57.80;38.10;;;;;;;25.21;79.42;101128.22;7363081;19;20361;-61
2023/09/10 01:26:07;;;;;;;59.08;38.90;;;;;;;25.18;80.03;101127.88;7360689;19;20011;-62
2023/09/10 01:28:34;;;;;;;57.42;39.33;;;;;;;25.16;81.02;101135.38;7364531;19;20891;-65
2023/09/10 01:31:01;;;;;;;52.65;40.22;;;;;;;25.14;80.58;101130.25;7360772;19;20494;-61
2023/09/10 01:33:35;;;;;;;54.30;39.72;;;;;;;25.11;80.71;101131.53;7361670;19;20022;-61
2023/09/10 01:36:07;;;;;;;50.00;38.40;;;;;;;25.09;80.74;101135.56;7356985;19;20018;-61
2023/09/10 01:38:43;;;;;;;52.55;39.10;;;;;;;25.06;80.69;101134.16;7360136;19;20592;-62
2023/09/10 01:41:16;;;;;;;56.50;39.92;;;;;;;25.06;81.05;101133.31;7356524;19;20014;-61
2023/09/10 01:43:44;;;;;;;58.22;39.47;;;;;;;25.02;80.88;101133.00;7361857;19;20055;-61
2023/09/10 01:46:14;;;;;;;58.80;39.78;;;;;;;25.00;81.54;101126.19;7358966;19;20014;-64
2023/09/10 01:48:41;;;;;;;57.53;39.75;;;;;;;24.97;81.04;101135.59;7357778;19;20477;-61
2023/09/10 01:51:08;;;;;;;56.10;39.38;;;;;;;24.97;81.40;101126.69;7361167;19;20028;-61
2023/09/10 01:53:35;;;;;;;64.28;44.30;;;;;;;24.96;81.37;101125.06;7360803;19;20055;-60
2023/09/10 01:56:03;;;;;;;60.33;44.35;;;;;;;24.95;80.99;101121.53;7354641;19;20026;-61
2023/09/10 01:58:30;;;;;;;62.25;45.65;;;;;;;24.95;80.97;101121.53;7358445;19;20022;-60
2023/09/10 02:00:57;;;;;;;64.43;44.88;;;;;;;24.94;81.30;101117.19;7336603;19;20105;-60
2023/09/10 02:03:24;;;;;;;63.40;44.53;;;;;;;24.95;81.21;101118.03;7356874;19;20029;-61
2023/09/10 02:05:51;;;;;;;62.38;42.60;;;;;;;24.94;81.55;101121.78;7355912;19;20015;-61
2023/09/10 02:08:18;;;;;;;60.22;41.20;;;;;;;24.94;81.54;101127.19;7359980;19;20098;-61
2023/09/10 02:10:45;;;;;;;64.05;44.22;;;;;;;24.91;81.19;101128.47;7358201;19;20015;-61
2023/09/10 02:13:12;;;;;;;60.58;43.55;;;;;;;24.91;82.12;101133.03;7359146;19;20026;-62
2023/09/10 02:15:40;;;;;;;62.42;43.55;;;;;;;24.87;81.78;101127.31;7354590;19;20022;-64
2023/09/10 02:18:07;;;;;;;66.80;45.50;;;;;;;24.85;82.34;101128.56;7354251;19;20035;-61
2023/09/10 02:20:36;;;;;;;69.53;48.88;;;;;;;24.83;81.87;101142.28;7356632;19;20565;-61
2023/09/10 02:23:03;;;;;;;66.78;48.35;;;;;;;24.84;82.37;101132.34;7357389;19;20015;-60
2023/09/10 02:25:32;;;;;;;67.85;48.25;;;;;;;24.83;82.41;101138.78;7346402;19;20010;-60
2023/09/10 02:28:01;;;;;;;65.60;45.90;;;;;;;24.82;82.86;101142.53;7360318;19;20082;-61
2023/09/10 02:30:28;;;;;;;69.80;49.28;;;;;;;24.82;82.68;101143.34;7356450;19;20572;-61
2023/09/10 02:32:55;;;;;;;70.75;52.13;;;;;;;24.85;82.00;101144.72;7358556;19;20022;-61
2023/09/10 02:35:23;;;;;;;77.75;52.50;;;;;;;24.85;81.91;101136.66;7354296;19;20343;-61
2023/09/10 02:37:50;;;;;;;77.85;53.78;;;;;;;24.85;81.74;101125.88;7356056;19;20034;-61
2023/09/10 02:40:17;;;;;;;72.30;50.53;;;;;;;24.81;82.38;101128.25;7356233;19;20078;-61
2023/09/10 02:42:44;;;;;;;79.20;54.22;;;;;;;24.79;82.40;101121.47;7360102;19;20018;-62
2023/09/10 02:45:12;;;;;;;85.22;54.78;;;;;;;24.79;82.87;101124.94;7354422;19;20642;-62
2023/09/10 02:47:39;;;;;;;78.72;55.67;;;;;;;24.77;82.58;101121.69;7347934;19;20410;-62
2023/09/10 02:50:06;;;;;;;86.45;59.42;;;;;;;24.77;82.97;101115.50;7349990;19;20054;-62
2023/09/10 02:52:34;;;;;;;88.57;59.60;;;;;;;24.76;82.29;101116.53;7354734;19;20022;-61
2023/09/10 02:55:01;;;;;;;88.20;59.33;;;;;;;24.75;82.82;101107.66;7357946;19;20676;-63
2023/09/10 02:57:28;;;;;;;91.07;61.38;;;;;;;24.74;82.66;101105.22;7358033;19;21127;-61
2023/09/10 02:59:55;;;;;;;92.68;61.45;;;;;;;24.74;82.41;101102.53;7356655;19;20026;-60
2023/09/10 03:02:22;;;;;;;91.65;62.92;;;;;;;24.71;82.47;101099.25;7357797;19;20010;-61
2023/09/10 03:04:49;;;;;;;91.38;61.97;;;;;;;24.69;82.99;101093.25;7357791;19;20006;-61
2023/09/10 03:07:17;;;;;;;93.93;62.28;;;;;;;24.69;83.30;101093.25;7358917;19;20019;-61
2023/09/10 03:09:44;;;;;;;94.75;63.53;;;;;;;24.68;82.90;101097.03;7360051;19;20484;-61
2023/09/10 03:12:21;;;;;;;93.75;63.42;;;;;;;24.69;83.38;101095.97;7358549;19;20015;-61
2023/09/10 03:14:49;;;;;;;88.97;63.55;;;;;;;24.70;83.20;101097.59;7354435;19;20010;-61
2023/09/10 03:17:17;;;;;;;101.53;63.53;;;;;;;24.72;82.71;101094.69;7356978;19;20044;-61
2023/09/10 03:19:45;;;;;;;92.47;61.53;;;;;;;24.69;83.30;101106.72;7359764;19;20014;-61
2023/09/10 03:22:12;;;;;;;97.55;62.95;;;;;;;24.65;83.34;101102.88;7355008;19;20022;-61
2023/09/10 03:24:40;;;;;;;106.85;67.32;;;;;;;24.65;83.63;101094.81;7355400;19;20037;-60
2023/09/10 03:27:07;;;;;;;106.90;71.75;;;;;;;24.61;83.36;101099.03;7353844;19;20124;-61
2023/09/10 03:29:35;;;;;;;98.45;67.20;;;;;;;24.59;83.74;101094.94;7360492;19;20007;-60
2023/09/10 03:32:03;;;;;;;102.65;68.95;;;;;;;24.55;83.47;101109.94;7355139;19;20102;-62
2023/09/10 03:34:31;;;;;;;104.00;69.00;;;;;;;24.49;83.69;101108.19;7355320;19;20022;-61
2023/09/10 03:36:58;;;;;;;108.65;71.10;;;;;;;24.44;83.99;101110.78;7352054;19;20018;-61
2023/09/10 03:39:27;;;;;;;109.65;72.80;;;;;;;24.42;84.10;101107.50;7353618;19;20013;-61
2023/09/10 03:41:54;;;;;;;110.93;71.22;;;;;;;24.38;85.35;101111.75;7351917;19;20019;-61
2023/09/10 03:44:21;;;;;;;109.72;72.72;;;;;;;24.34;84.66;101110.56;7356288;19;20483;-61
2023/09/10 03:46:48;;;;;;;106.80;71.80;;;;;;;24.31;84.96;101117.25;7356389;19;21199;-61
2023/09/10 03:49:16;;;;;;;107.63;69.72;;;;;;;24.27;84.63;101110.69;7355769;19;20041;-60
2023/09/10 03:51:43;;;;;;;109.05;70.38;;;;;;;24.25;84.76;101107.41;7352188;19;20614;-62
2023/09/10 03:54:12;;;;;;;112.00;71.50;;;;;;;24.19;84.83;101111.03;7356205;19;20011;-61
2023/09/10 03:56:39;;;;;;;106.15;68.85;;;;;;;24.15;85.02;101099.09;7355971;19;20023;-62
2023/09/10 03:59:07;;;;;;;105.85;67.80;;;;;;;24.13;85.16;101107.38;7360072;19;20530;-62
2023/09/10 04:01:36;;;;;;;104.90;68.85;;;;;;;24.09;85.10;101098.16;7354000;19;20010;-61
2023/09/10 04:04:03;;;;;;;101.65;68.35;;;;;;;24.06;84.96;101103.19;7338361;19;20057;-60
2023/09/10 04:06:31;;;;;;;101.30;67.13;;;;;;;24.03;84.61;101109.03;7346773;19;20018;-61
2023/09/10 04:08:59;;;;;;;104.28;66.40;;;;;;;24.02;84.37;101110.09;7349392;19;20015;-62
2023/09/10 04:11:26;;;;;;;101.22;63.60;;;;;;;23.98;84.92;101109.72;7352620;19;20089;-60
2023/09/10 04:13:53;;;;;;;98.03;64.53;;;;;;;23.97;84.63;101093.84;7352459;19;20703;-61
2023/09/10 04:16:21;;;;;;;93.35;63.03;;;;;;;23.96;85.00;101098.41;7355892;19;20022;-61
2023/09/10 04:18:48;;;;;;;102.65;64.47;;;;;;;23.93;85.51;101104.25;7353948;19;20025;-60
2023/09/10 04:21:15;;;;;;;96.03;62.90;;;;;;;23.90;84.86;101096.66;7352797;19;21872;-61
2023/09/10 04:23:43;;;;;;;101.90;63.35;;;;;;;23.91;85.81;101094.78;7353208;19;20091;-61
2023/09/10 04:26:12;;;;;;;93.13;61.95;;;;;;;23.93;85.68;101087.28;7355494;19;20458;-61
2023/09/10 04:28:40;;;;;;;94.95;61.42;;;;;;;23.95;84.82;101087.88;7353777;19;20035;-61
2023/09/10 04:31:12;;;;;;;92.05;63.13;;;;;;;23.95;84.54;101077.94;7332937;19;20015;-60
2023/09/10 04:33:40;;;;;;;104.23;67.50;;;;;;;23.96;84.84;101084.97;7354332;19;20038;-62
2023/09/10 04:36:07;;;;;;;94.57;62.58;;;;;;;23.96;84.60;101082.28;7349781;19;20507;-62
2023/09/10 04:38:34;;;;;;;97.55;62.92;;;;;;;23.96;84.44;101079.59;7355761;19;20013;-62
2023/09/10 04:41:02;;;;;;;90.90;62.10;;;;;;;23.97;84.66;101072.34;7353692;19;20539;-61
2023/09/10 04:43:29;;;;;;;94.25;62.60;;;;;;;23.98;84.74;101068.56;7351947;19;20011;-60
2023/09/10 04:46:01;;;;;;;96.15;62.83;;;;;;;23.99;84.48;101065.66;7351219;19;20042;-61
2023/09/10 04:48:31;;;;;;;96.13;63.97;;;;;;;24.00;84.12;101070.00;7357859;19;20395;-60
2023/09/10 04:50:59;;;;;;;98.75;64.43;;;;;;;23.98;84.25;101069.41;7355792;19;20050;-61
2023/09/10 04:53:26;;;;;;;95.43;62.53;;;;;;;23.98;83.87;101064.03;7359125;19;20007;-60
2023/09/10 04:55:54;;;;;;;101.13;66.15;;;;;;;23.98;83.70;101077.47;7340364;19;21786;-61
2023/09/10 04:58:21;;;;;;;95.53;65.88;;;;;;;23.97;83.26;101062.41;7357927;19;20015;-61
2023/09/10 05:00:50;;;;;;;94.80;64.75;;;;;;;23.95;83.31;101066.38;7361471;19;20057;-61
2023/09/10 05:03:17;;;;;;;93.10;62.85;;;;;;;23.90;83.57;101063.56;7361969;19;20093;-61
2023/09/10 05:05:45;;;;;;;90.85;60.53;;;;;;;23.84;84.10;101063.44;7357838;19;20030;-61
2023/09/10 05:08:12;;;;;;;83.95;58.85;;;;;;;23.79;84.27;101070.59;7360236;19;20018;-62
2023/09/10 05:10:47;;;;;;;87.85;58.42;;;;;;;23.72;84.88;101059.16;7362131;19;20351;-61
2023/09/10 05:13:15;;;;;;;81.63;55.50;;;;;;;23.71;84.68;101061.00;7358361;19;20010;-62
2023/09/10 05:15:45;;;;;;;83.22;54.85;;;;;;;23.70;83.95;101063.94;7360145;19;20019;-61
2023/09/10 05:18:13;;;;;;;75.88;51.20;;;;;;;23.72;83.95;101069.91;7356812;19;20520;-62
2023/09/10 05:20:40;;;;;;;82.03;52.67;;;;;;;23.73;84.16;101076.88;7357818;19;20045;-60
2023/09/10 05:23:08;;;;;;;72.85;50.80;;;;;;;23.73;83.88;101082.25;7340845;19;20023;-61
2023/09/10 05:25:36;;;;;;;78.47;51.50;;;;;;;23.71;84.05;101087.91;7358333;19;20038;-60
2023/09/10 05:28:04;;;;;;;78.57;52.08;;;;;;;23.71;84.00;101087.91;7359351;19;20003;-61
2023/09/10 05:30:31;;;;;;;74.65;50.40;;;;;;;23.72;84.37;101086.03;7358730;19;20082;-60
2023/09/10 05:32:59;;;;;;;75.85;51.08;;;;;;;23.72;84.47;101086.03;7359051;19;20014;-60
2023/09/10 05:35:26;;;;;;;80.30;51.40;;;;;;;23.69;84.32;101086.47;7357518;19;20058;-62
2023/09/10 05:37:53;;;;;;;71.15;51.17;;;;;;;23.68;84.17;101090.19;7360297;19;20051;-62
2023/09/10 05:40:21;;;;;;;77.03;52.03;;;;;;;23.65;84.68;101088.81;7359161;19;20022;-61
2023/09/10 05:42:49;;;;;;;76.65;52.35;;;;;;;23.66;84.73;101089.63;7362521;19;20014;-62
2023/09/10 05:45:16;;;;;;;74.07;50.38;;;;;;;23.67;85.61;101094.75;7355094;19;20356;-61
2023/09/10 05:47:44;;;;;;;74.30;50.50;;;;;;;23.71;85.40;101092.44;7360256;19;20916;-60
2023/09/10 05:50:11;;;;;;;70.88;49.67;;;;;;;23.71;85.26;101097.81;7357314;19;20102;-60
2023/09/10 05:52:38;;;;;;;88.72;51.67;;;;;;;23.75;84.59;101097.13;7352605;19;20454;-61
2023/09/10 05:55:06;;;;;;;82.97;53.05;;;;;;;23.77;85.12;101099.59;7355313;19;20094;-61
2023/09/10 05:57:33;;;;;;;91.38;59.15;;;;;;;23.77;84.99;101103.06;7358470;19;20022;-62
2023/09/10 06:00:01;;;;;;;92.53;61.95;;;;;;;23.76;85.51;101101.44;7361203;19;20589;-61
2023/09/10 06:02:28;;;;;;;105.82;68.28;;;;;;;23.76;85.32;101103.31;7358959;19;21729;-61
2023/09/10 06:04:55;;;;;;;111.85;73.63;;;;;;;23.77;85.86;101105.75;7357208;19;20020;-60
2023/09/10 06:07:23;;;;;;;120.05;75.38;;;;;;;23.77;86.12;101108.44;7359492;19;20098;-60
2023/09/10 06:09:50;;;;;;;122.07;78.43;;;;;;;23.80;85.87;101109.84;7357587;19;20078;-60
2023/09/10 06:12:17;;;;;;;120.00;78.18;;;;;;;23.79;85.52;101109.03;7349246;19;20018;-61
2023/09/10 06:14:45;;;;;;;116.90;76.78;;;;;;;23.80;85.56;101112.53;7347068;19;21669;-62
2023/09/10 06:17:12;;;;;;;116.40;76.90;;;;;;;23.76;86.03;101111.38;7356646;19;20010;-61
2023/09/10 06:19:39;;;;;;;117.85;75.45;;;;;;;23.76;85.92;101106.81;7357258;19;20121;-62
2023/09/10 06:22:06;;;;;;;111.85;74.72;;;;;;;23.77;85.85;101110.34;7355912;19;20014;-63
2023/09/10 06:24:34;;;;;;;114.90;74.68;;;;;;;23.73;86.14;101112.66;7361212;19;20526;-61
2023/09/10 06:27:02;;;;;;;113.97;71.60;;;;;;;23.77;86.45;101110.34;7358077;19;20018;-61
2023/09/10 06:29:29;;;;;;;109.28;73.68;;;;;;;23.79;85.99;101114.41;7360900;19;20364;-61
2023/09/10 06:31:57;;;;;;;112.80;74.63;;;;;;;23.79;85.62;101114.41;7358019;19;20440;-62
2023/09/10 06:34:25;;;;;;;111.40;73.32;;;;;;;23.81;85.06;101116.88;7354836;19;20044;-60
2023/09/10 06:36:52;;;;;;;114.05;75.38;;;;;;;23.84;84.94;101111.84;7351304;19;20701;-61
2023/09/10 06:39:19;;;;;;;110.45;72.85;;;;;;;23.83;84.53;101120.97;7339680;19;20025;-60
2023/09/10 06:41:47;;;;;;;113.65;73.93;;;;;;;23.86;85.21;101122.38;7355467;19;20137;-61
2023/09/10 06:44:14;;;;;;;111.03;71.38;;;;;;;23.83;84.99;101115.56;7358551;19;20438;-61
2023/09/10 06:46:41;;;;;;;113.97;73.22;;;;;;;23.82;85.52;101119.31;7357759;19;20110;-60
2023/09/10 06:49:09;;;;;;;92.20;61.33;;;;;;;23.81;85.75;101112.31;7357940;19;20018;-61
2023/09/10 06:51:36;;;;;;;78.53;53.28;;;;;;;23.85;84.53;101118.88;7355844;19;20845;-62
2023/09/10 06:54:03;;;;;;;75.72;51.53;;;;;;;23.84;84.71;101116.41;7353948;19;20014;-66
2023/09/10 06:56:30;;;;;;;77.60;53.17;;;;;;;23.87;83.89;101129.41;7358470;19;20158;-61
2023/09/10 06:58:58;;;;;;;77.47;52.45;;;;;;;23.88;83.61;101128.31;7359095;19;20041;-61
2023/09/10 07:01:25;;;;;;;77.97;51.10;;;;;;;23.88;84.08;101126.44;7354502;19;20011;-61
2023/09/10 07:03:52;;;;;;;79.35;53.78;;;;;;;23.91;83.72;101124.38;7358956;19;20021;-62
2023/09/10 07:06:19;;;;;;;84.45;57.92;;;;;;;23.93;83.31;101131.13;7333052;19;20721;-62
2023/09/10 07:08:47;;;;;;;88.00;59.95;;;;;;;23.93;83.20;101141.06;7357339;19;20017;-61
2023/09/10 07:11:14;;;;;;;86.53;58.05;;;;;;;23.95;83.80;101134.41;7354733;19;20014;-61
2023/09/10 07:13:41;;;;;;;83.32;57.42;;;;;;;23.99;83.66;101126.69;7356990;19;20376;-62
2023/09/10 07:16:08;;;;;;;81.60;56.13;;;;;;;24.01;83.28;101129.97;7352772;19;20018;-62
2023/09/10 07:18:36;;;;;;;78.65;54.92;;;;;;;24.02;83.47;101129.75;7357494;19;20014;-62
2023/09/10 07:21:03;;;;;;;85.28;55.67;;;;;;;24.03;83.80;101122.47;7353696;19;20119;-61
2023/09/10 07:23:31;;;;;;;83.40;58.55;;;;;;;24.05;83.06;101123.91;7355509;19;20010;-60
2023/09/10 07:25:58;;;;;;;79.85;55.15;;;;;;;24.08;83.20;101126.09;7355787;19;20022;-63
2023/09/10 07:28:25;;;;;;;85.30;56.90;;;;;;;24.10;83.17;101115.94;7356963;19;20698;-62
2023/09/10 07:30:52;;;;;;;81.65;54.05;;;;;;;24.12;83.43;101116.53;7355041;19;20059;-61
2023/09/10 07:33:20;;;;;;;87.70;59.97;;;;;;;24.12;83.28;101121.09;7357832;19;20010;-63
2023/09/10 07:35:47;;;;;;;78.85;56.58;;;;;;;24.14;82.99;101127.03;7354219;19;20056;-61
2023/09/10 07:38:14;;;;;;;85.85;57.25;;;;;;;24.16;82.65;101131.16;7353190;19;20018;-61
2023/09/10 07:40:41;;;;;;;91.65;60.60;;;;;;;24.20;82.72;101129.66;7331416;19;20046;-61
2023/09/10 07:43:09;;;;;;;86.28;57.83;;;;;;;24.21;82.34;101128.59;7344867;19;20482;-62
2023/09/10 07:45:36;;;;;;;87.60;56.20;;;;;;;24.24;82.59;101130.00;7354573;19;21087;-61
2023/09/10 07:48:04;;;;;;;80.65;56.42;;;;;;;24.26;82.61;101122.50;7354851;19;20015;-64
2023/09/10 07:50:32;;;;;;;84.05;59.45;;;;;;;24.29;82.65;101122.84;7353018;19;20018;-61
2023/09/10 07:52:59;;;;;;;84.85;56.33;;;;;;;24.31;82.44;101117.25;7354878;19;20029;-60
2023/09/10 07:55:26;;;;;;;85.78;56.92;;;;;;;24.34;82.61;101124.81;7357325;19;20010;-61
2023/09/10 07:57:53;;;;;;;82.30;55.45;;;;;;;24.39;82.95;101122.25;7354030;19;20014;-60
2023/09/10 08:00:23;;;;;;;77.18;53.10;;;;;;;24.43;83.03;101130.69;7359302;19;21776;-61
2023/09/10 08:02:51;;;;;;;83.15;54.83;;;;;;;24.46;82.92;101128.31;7355081;19;20011;-62
2023/09/10 08:05:18;;;;;;;81.70;55.38;;;;;;;24.51;82.90;101114.97;7354086;19;20018;-62
2023/09/10 08:07:45;;;;;;;86.10;56.22;;;;;;;24.56;82.36;101116.97;7334209;19;20018;-66
2023/09/10 08:10:13;;;;;;;80.40;53.50;;;;;;;24.59;82.25;101111.91;7353332;19;20011;-67
2023/09/10 08:12:40;;;;;;;78.68;53.47;;;;;;;24.64;82.38;101117.38;7356192;19;21192;-67
2023/09/10 08:15:08;;;;;;;83.60;54.95;;;;;;;24.68;82.57;101115.88;7354190;19;20018;-67
2023/09/10 08:17:36;;;;;;;82.97;56.20;;;;;;;24.73;82.30;101109.78;7350575;19;21705;-68
2023/09/10 08:20:06;;;;;;;83.85;56.58;;;;;;;24.82;79.60;101116.41;7352413;19;20033;-67
2023/09/10 08:22:34;;;;;;;80.28;55.88;;;;;;;24.81;79.02;101119.34;7358639;19;20025;-68
2023/09/10 08:25:04;;;;;;;83.63;55.72;;;;;;;24.83;78.89;101117.25;7361484;19;20026;-68
2023/09/10 08:27:31;;;;;;;78.95;53.67;;;;;;;24.88;79.08;101125.44;7362958;19;20495;-67
2023/09/10 08:29:58;;;;;;;78.68;54.60;;;;;;;24.99;77.53;101113.81;7363551;19;20022;-68
2023/09/10 08:32:26;;;;;;;76.18;51.28;;;;;;;25.01;77.76;101119.75;7361203;19;20121;-68
2023/09/10 08:34:53;;;;;;;75.25;50.13;;;;;;;25.03;78.92;101123.03;7361461;19;20021;-68
2023/09/10 08:37:20;;;;;;;72.47;49.20;;;;;;;25.08;79.84;101117.75;7356232;19;20025;-67
2023/09/10 08:39:48;;;;;;;73.95;49.08;;;;;;;25.10;78.47;101113.75;7362170;19;20018;-68
2023/09/10 08:42:30;;;;;;;69.50;46.72;;;;;;;25.14;77.66;101109.50;7363510;19;20082;-68
2023/09/10 08:45:03;;;;;;;67.93;47.10;;;;;;;25.19;77.11;101116.06;7364796;19;20022;-67
2023/09/10 08:47:39;;;;;;;65.63;45.78;;;;;;;25.22;77.03;101118.25;7359184;19;20018;-68
2023/09/10 08:50:11;;;;;;;63.20;47.13;;;;;;;25.27;76.36;101116.47;7361717;19;20081;-67
2023/09/10 08:52:42;;;;;;;63.30;43.90;;;;;;;25.33;76.06;101123.59;7361740;19;20027;-67
2023/09/10 08:55:11;;;;;;;60.95;44.05;;;;;;;25.38;76.50;101118.28;7356152;19;20298;-67
2023/09/10 08:57:40;;;;;;;66.78;45.35;;;;;;;25.42;76.11;101116.75;7359540;19;21037;-67
2023/09/10 09:00:12;;;;;;;60.75;40.60;;;;;;;25.49;75.89;101112.03;7360751;19;20014;-68
2023/09/10 09:02:44;;;;;;;59.95;39.83;;;;;;;25.54;75.07;101101.31;7360290;19;20018;-67
2023/09/10 09:05:12;;;;;;;59.25;38.78;;;;;;;25.58;74.58;101101.66;7356342;19;20022;-68
2023/09/10 09:07:46;;;;;;;55.72;40.25;;;;;;;25.62;74.62;101099.28;7358398;19;20003;-67
2023/09/10 09:10:19;;;;;;;56.95;40.22;;;;;;;25.65;74.62;101102.31;7363909;19;20020;-67
2023/09/10 09:12:48;;;;;;;58.97;39.00;;;;;;;25.70;73.74;101102.38;7360268;19;20021;-67
2023/09/10 09:15:18;;;;;;;50.78;35.85;;;;;;;25.76;73.62;101100.59;7362028;19;20131;-72
2023/09/10 09:17:46;;;;;;;56.60;38.25;;;;;;;25.81;72.97;101095.28;7355604;19;20018;-68
2023/09/10 09:20:17;;;;;;;51.92;37.10;;;;;;;25.83;73.17;101091.28;7362679;19;21129;-67
2023/09/10 09:22:49;;;;;;;49.10;34.70;;;;;;;25.90;72.78;101104.59;7356438;19;20078;-67
2023/09/10 09:25:17;;;;;;;46.72;33.03;;;;;;;25.93;72.05;101104.91;7363533;19;20014;-67
2023/09/10 09:27:45;;;;;;;47.42;32.72;;;;;;;25.99;72.49;101103.13;7356721;19;20019;-67
2023/09/10 09:30:12;;;;;;;41.05;29.88;;;;;;;26.05;71.96;101107.53;7361594;19;20044;-68
2023/09/10 09:32:39;;;;;;;44.55;27.90;;;;;;;26.09;71.16;101105.94;7353896;19;20134;-67
2023/09/10 09:35:10;;;;;;;37.65;26.10;;;;;;;26.17;71.40;101096.59;7354545;19;20017;-68
2023/09/10 09:37:37;;;;;;;36.78;26.65;;;;;;;26.19;70.85;101087.19;7356079;19;21113;-68
2023/09/10 09:40:09;;;;;;;36.53;25.27;;;;;;;26.23;71.09;101084.84;7362993;19;20708;-68
2023/09/10 09:42:37;;;;;;;37.88;25.02;;;;;;;26.25;71.16;101083.53;7358361;19;20010;-68
2023/09/10 09:45:05;;;;;;;37.15;25.67;;;;;;;26.33;71.20;101088.50;7360663;19;20021;-68
2023/09/10 09:47:33;;;;;;;36.42;25.42;;;;;;;26.38;69.94;101083.16;7354025;19;20058;-67
2023/09/10 09:50:00;;;;;;;34.72;22.02;;;;;;;26.43;70.44;101079.72;7353829;19;20680;-68
2023/09/10 09:52:27;;;;;;;32.25;22.80;;;;;;;26.47;70.52;101080.81;7356846;19;20022;-67
2023/09/10 09:54:54;;;;;;;35.25;23.63;;;;;;;26.53;70.13;101074.44;7357200;19;20018;-68
2023/09/10 09:57:21;;;;;;;32.47;22.27;;;;;;;26.59;69.79;101078.00;7357390;19;20019;-67
2023/09/10 09:59:49;;;;;;;33.35;23.73;;;;;;;26.71;68.81;101074.13;7357692;19;20018;-67
2023/09/10 10:02:18;;;;;;;31.27;22.42;;;;;;;26.74;69.35;101068.19;7357897;19;20562;-68
2023/09/10 10:04:45;;;;;;;32.45;20.88;;;;;;;26.79;69.01;101072.84;7359470;19;20022;-68
2023/09/10 10:07:14;;;;;;;31.52;21.27;;;;;;;26.85;68.59;101071.00;7356222;19;20542;-66
2023/09/10 10:09:51;;;;;;;25.45;18.73;;;;;;;26.88;68.52;101068.63;7360662;19;20887;-67
2023/09/10 10:12:19;;;;;;;25.45;18.02;;;;;;;26.93;68.38;101065.16;7355017;19;20014;-68
2023/09/10 10:14:48;;;;;;;25.85;17.65;;;;;;;26.97;68.32;101061.69;7357699;19;20025;-68
2023/09/10 10:17:16;;;;;;;25.90;19.00;;;;;;;27.03;67.83;101062.56;7357164;19;21058;-68
2023/09/10 10:19:43;;;;;;;26.80;18.15;;;;;;;27.08;68.11;101063.41;7352121;19;20018;-67
2023/09/10 10:22:13;;;;;;;32.60;19.05;;;;;;;27.12;67.67;101055.63;7356401;19;20039;-68
2023/09/10 10:24:41;;;;;;;22.52;17.50;;;;;;;27.22;66.33;101058.44;7357556;19;20018;-68
2023/09/10 10:27:09;;;;;;;24.10;17.15;;;;;;;27.28;66.85;101053.88;7356629;19;20479;-67
2023/09/10 10:29:37;;;;;;;23.95;15.30;;;;;;;27.29;67.11;101056.31;7361860;19;20029;-67
2023/09/10 10:32:10;;;;;;;23.15;14.68;;;;;;;27.34;66.46;101053.66;7360719;19;20474;-68
2023/09/10 10:34:46;;;;;;;23.85;15.65;;;;;;;27.38;66.16;101043.94;7357195;19;20077;-68
2023/09/10 10:37:27;;;;;;;22.50;15.20;;;;;;;27.44;65.67;101036.69;7353792;19;20018;-67
2023/09/10 10:40:06;;;;;;;19.90;13.88;;;;;;;27.50;65.78;101030.28;7361124;19;20636;-68
2023/09/10 10:42:43;;;;;;;23.77;14.40;;;;;;;27.53;65.60;101025.16;7358549;19;20034;-68
2023/09/10 10:45:15;;;;;;;22.02;13.80;;;;;;;27.58;65.47;101022.47;7361693;19;20010;-68
2023/09/10 10:47:44;;;;;;;21.42;13.63;;;;;;;27.63;64.72;101019.03;7354966;19;20031;-68
2023/09/10 10:50:15;;;;;;;22.90;13.52;;;;;;;27.69;64.91;101019.84;7357833;19;20126;-68
2023/09/10 10:52:54;;;;;;;19.73;13.40;;;;;;;27.74;65.23;101022.56;7355052;19;20018;-68
2023/09/10 10:55:23;;;;;;;18.60;13.45;;;;;;;27.79;65.93;101009.91;7357147;19;20033;-69
2023/09/10 10:57:52;;;;;;;18.65;14.40;;;;;;;27.83;64.83;101002.91;7345965;19;20019;-68
2023/09/10 11:00:21;;;;;;;24.38;14.20;;;;;;;27.89;64.35;100999.13;7358814;19;20721;-69
2023/09/10 11:03:06;;;;;;;17.55;13.02;;;;;;;27.98;64.44;101004.88;7355131;19;20021;-62
2023/09/10 11:05:54;;;;;;;19.48;11.07;;;;;;;28.06;64.39;100997.06;7356612;19;20037;-62
2023/09/10 11:08:29;;;;;;;15.38;11.02;;;;;;;28.17;64.20;101002.53;7356392;19;20018;-61
2023/09/10 11:10:57;;;;;;;20.67;12.10;;;;;;;28.21;63.47;101020.69;7352842;19;20014;-61
2023/09/10 11:13:25;;;;;;;15.95;9.93;;;;;;;28.23;63.08;101010.41;7354151;19;20348;-62